首页
METAR-TAF:

METAR-TAF

机场 :

Trenton-Mercer Airport

特伦顿, 新泽西州, 美国

纬度: 40-16-35N, 经度: 074-48-59W, 海拔: 64米

当前天气观测

该预报发布于21分钟前的22:53 UTC
风速7节,风向西北
温度 21°C
湿度 33%
气压 1016 hPa
能見度: 16.1公里
天空无云

METAR: KTTN 302253Z 32007KT 10SM CLR 21/04 A2999 RMK AO2 SLP149 T02060044

时间: 19:14 (23:14 UTC)

预报

该预报发布于2小时和37分钟前的20:37 UTC
预报有效从30日的 21点(UTC)到 31日的 18点(UTC)
风速8节,风向西北,有时为16节阵风
能見度: 10公里
散云层高于7000英尺
从 31日的 0000点(UTC)
风速5节,风向北转西北
能見度: 10公里
天空无云
从 31日的 1400点(UTC)
风速10节,风向,有时为18节阵风
能見度: 10公里
天空无云

TAF: KTTN 302037Z 3021/3118 32008G16KT P6SM SCT070 FM310000 33005KT P6SM SKC FM311400 35010G18KT P6SM SKC

超过4000个机场的气象观测和天气预报(METAR&TAF报告)。

可查询的气象台以黄色和红色小点在地图上表示。

将鼠标移到小点上方,可查看气象台名称。

然后点击查看天气观测和预报。

如需切换地图:点击带黑十字的绿色按钮放大地图;点击带横线的绿色按钮缩小地图;或者点击绿色箭头查看邻近地区的地图。


METAR-TAF: